»·PEaware :: N24994 KAVX-KSAN

N24994 :: KAVX-KSAN

FLIGHT INFORMATION

Flight Status: Arrived
Operator: Privately registered:
United States
More flights under this callsign
Pilot: Chris W. (16363)
Aircraft: CESSNA 172 SKYHAWK
(C172)
More flights by this aircraft type
Origin: KAVX Catalina
United States
Destination: KSAN San Diego Intl-Lindbergh
United States
More flights between these airports :: More routes between these airports
Route: SXC V208 OCN V23 MZB
File this flight plan on PilotEdge
Remarks: I-8 rating
Altitude:
(Current/Filed)
5,000ft
Speed:
(Current/Filed)
110kts
Departed: 10-Jan-18 11:22 PM
Arrived: 11-Jan-18 12:13 AM
Distance/Time
Traveled:
73nm/0:50
Distance/Time
To Go:
Arrived

Flight Plot

Page will automatically refresh every two minutes.


Map Options




Map Legend


Flown Route
Filed Route
Departure Airport
Arrival Airport
Navaid (VOR, NDB)
Fix

Horizontal Profiles

Position Reports

Time Latitude Longitude Heading Altitude Ground
Speed
10-Jan-18 23:05 33.403292 -118.415954 44 1551ft 0kts
10-Jan-18 23:06 33.403292 -118.415954 44 1551ft 0kts
10-Jan-18 23:07 33.403293 -118.415954 44 1551ft 0kts
10-Jan-18 23:08 33.403293 -118.415954 44 1551ft 0kts
10-Jan-18 23:09 33.403293 -118.415954 44 1551ft 0kts
10-Jan-18 23:10 33.403293 -118.415954 44 1551ft 0kts
10-Jan-18 23:11 33.403293 -118.415954 44 1551ft 0kts
10-Jan-18 23:12 33.403293 -118.415954 44 1551ft 0kts
10-Jan-18 23:13 33.403293 -118.415954 44 1551ft 0kts
10-Jan-18 23:14 33.403293 -118.415954 44 1551ft 0kts
10-Jan-18 23:15 33.403293 -118.415954 44 1551ft 0kts
10-Jan-18 23:16 33.403293 -118.415954 44 1551ft 0kts
10-Jan-18 23:17 33.403293 -118.415954 44 1551ft 0kts
10-Jan-18 23:18 33.403357 -118.416001 304 1552ft 0kts
10-Jan-18 23:19 33.403651 -118.416659 299 1555ft 5kts
10-Jan-18 23:20 33.402246 -118.419705 301 1554ft 0kts
10-Jan-18 23:21 33.402246 -118.419705 300 1554ft 0kts
10-Jan-18 23:22 33.402246 -118.419705 300 1554ft 0kts
10-Jan-18 23:23 33.402246 -118.419705 300 1554ft 0kts
10-Jan-18 23:24 33.402246 -118.419705 300 1554ft 0kts
10-Jan-18 23:25 33.402246 -118.419705 300 1554ft 0kts
10-Jan-18 23:26 33.402246 -118.419706 295 1554ft 0kts
10-Jan-18 23:27 33.402246 -118.419706 294 1554ft 0kts
10-Jan-18 23:28 33.406274 -118.412822 61 1691ft 78kts
10-Jan-18 23:29 33.415563 -118.389502 42 2823ft 79kts
10-Jan-18 23:30 33.417185 -118.364331 149 3836ft 96kts
10-Jan-18 23:31 33.391840 -118.350886 169 4666ft 111kts
10-Jan-18 23:32 33.367849 -118.326510 111 4928ft 141kts
10-Jan-18 23:33 33.357649 -118.284273 95 4904ft 126kts
10-Jan-18 23:34 33.361403 -118.246533 47 4885ft 111kts
10-Jan-18 23:35 33.355554 -118.210218 120 4948ft 140kts
10-Jan-18 23:36 33.327405 -118.175763 132 4951ft 146kts
10-Jan-18 23:37 33.299142 -118.141467 132 4953ft 148kts
10-Jan-18 23:38 33.271471 -118.104854 120 4951ft 148kts
10-Jan-18 23:39 33.249216 -118.063597 132 4949ft 149kts
10-Jan-18 23:40 33.224694 -118.024572 115 4949ft 145kts
10-Jan-18 23:41 33.204741 -117.983428 119 4952ft 143kts
10-Jan-18 23:42 33.181389 -117.945641 118 4960ft 139kts
10-Jan-18 23:43 33.159937 -117.908038 117 4968ft 135kts
10-Jan-18 23:44 33.139484 -117.871255 116 4976ft 131kts
10-Jan-18 23:45 33.119626 -117.835432 117 4981ft 128kts
10-Jan-18 23:46 33.100147 -117.799934 113 4985ft 127kts
10-Jan-18 23:47 33.084725 -117.762415 108 4989ft 125kts
10-Jan-18 23:48 33.069818 -117.724601 109 4993ft 125kts
10-Jan-18 23:49 33.058352 -117.695442 108 4995ft 125kts
10-Jan-18 23:50 33.046039 -117.665647 113 4998ft 126kts
10-Jan-18 23:51 33.027723 -117.629594 114 5001ft 127kts
10-Jan-18 23:52 33.009334 -117.593619 114 5004ft 127kts
10-Jan-18 23:53 32.990886 -117.557618 114 5007ft 128kts
10-Jan-18 23:54 32.972293 -117.521317 114 5013ft 130kts
10-Jan-18 23:55 32.958958 -117.481952 102 5019ft 128kts
10-Jan-18 23:56 32.947188 -117.441372 102 5028ft 130kts
10-Jan-18 23:57 32.934715 -117.400427 102 4962ft 133kts
10-Jan-18 23:58 32.922893 -117.358704 102 4973ft 132kts
10-Jan-18 23:59 32.911426 -117.318428 103 4981ft 132kts
11-Jan-18 00:00 32.898478 -117.278272 108 4896ft 133kts
11-Jan-18 00:01 32.882640 -117.238677 110 4790ft 132kts
11-Jan-18 00:02 32.867005 -117.199505 110 4686ft 132kts
11-Jan-18 00:03 32.851090 -117.161140 113 4584ft 133kts
11-Jan-18 00:04 32.835135 -117.124126 112 4953ft 116kts
11-Jan-18 00:05 32.816613 -117.086414 117 4959ft 134kts
11-Jan-18 00:06 32.794343 -117.042714 117 4954ft 136kts
11-Jan-18 00:07 32.774919 -117.004139 117 4950ft 135kts
11-Jan-18 00:08 32.751938 -116.968592 125 4939ft 136kts
11-Jan-18 00:09 32.724539 -116.935478 141 4532ft 149kts
11-Jan-18 00:10 32.691919 -116.905642 140 3968ft 144kts
11-Jan-18 00:11 32.662103 -116.909169 248 3935ft 134kts
11-Jan-18 00:12 32.670120 -116.949701 302 4007ft 128kts
11-Jan-18 00:13 32.687702 -116.986079 281 3947ft 137kts
11-Jan-18 00:14 32.695576 -117.028403 290 4013ft 122kts
11-Jan-18 00:15 32.707109 -117.069122 277 3831ft 136kts
11-Jan-18 00:16 32.712822 -117.104080 288 2936ft 129kts
11-Jan-18 00:17 32.723589 -117.149406 286 1133ft 113kts
11-Jan-18 00:18 32.731746 -117.182338 287 30ft 88kts
11-Jan-18 00:19 32.733930 -117.194901 176 17ft 0kts
11-Jan-18 00:20 32.733852 -117.194894 173 17ft 0kts
11-Jan-18 00:21 32.733717 -117.194869 170 17ft 0kts
11-Jan-18 00:22 32.733717 -117.194869 170 17ft 0kts
11-Jan-18 00:23 32.733717 -117.194869 170 17ft 0kts
11-Jan-18 00:24 32.732897 -117.194403 147 17ft 0kts
11-Jan-18 00:25 32.732895 -117.194402 147 17ft 0kts
11-Jan-18 00:26 32.732895 -117.194402 147 17ft 0kts
11-Jan-18 00:27 32.732895 -117.194402 147 17ft 0kts
11-Jan-18 00:28 32.732895 -117.194402 147 17ft 0kts
11-Jan-18 00:29 32.732895 -117.194402 147 17ft 0kts
11-Jan-18 00:30 32.732895 -117.194402 147 17ft 0kts

Navigation Log

Ident Type
1. KAVX Airport
2. SXC Navaid
3. AVOLS Fix
4. PACIF Fix
5. HUBRD Fix
6. OCN Navaid
7. HURSI Fix
8. CARIF Fix
9. MZB Navaid
10. KSAN Airport